Time,TemperatureF,DewpointF,PressureIn,WindDirection,WindDirectionDegrees,WindSpeedMPH,WindSpeedGustMPH,Humidity,HourlyPrecipIn,Conditions,Clouds,dailyrainin,SoftwareType,DateUTC
2013-02-26 00:14:00,67.6,65.5,29.74,SSW,196,0.0,0.0,93,0.00,,,0.00,WeatherDisplay:10.37,2013-02-26 05:14:00,
2013-02-26 00:29:00,67.6,65.5,29.74,SSW,196,0.0,0.0,93,0.00,,,0.00,WeatherDisplay:10.37,2013-02-26 05:29:00,
2013-02-26 00:44:00,67.6,65.5,29.73,SSW,196,0.0,0.0,93,0.00,,,0.00,WeatherDisplay:10.37,2013-02-26 05:44:00,
2013-02-26 00:59:00,67.6,65.2,29.73,SSW,196,0.0,0.0,92,0.00,,,0.00,WeatherDisplay:10.37,2013-02-26 05:59:00,
2013-02-26 01:14:00,67.6,65.2,29.74,SSW,196,0.0,0.0,92,0.00,,,0.00,WeatherDisplay:10.37,2013-02-26 06:14:00,
2013-02-26 01:29:00,67.6,65.2,29.73,SSW,196,0.0,0.0,92,0.00,,,0.00,WeatherDisplay:10.37,2013-02-26 06:29:00,
2013-02-26 01:44:00,67.6,65.2,29.73,SSW,196,0.0,0.0,92,0.00,,,0.00,WeatherDisplay:10.37,2013-02-26 06:44:00,
2013-02-26 01:59:00,67.9,65.5,29.73,SSW,196,0.0,0.0,92,0.00,,,0.00,WeatherDisplay:10.37,2013-02-26 06:59:00,
2013-02-26 02:14:00,68.1,65.7,29.73,SSW,196,0.0,0.0,92,0.00,,,0.00,WeatherDisplay:10.37,2013-02-26 07:14:00,
2013-02-26 02:29:00,68.4,66.0,29.71,SSW,196,0.0,0.0,92,0.00,,,0.00,WeatherDisplay:10.37,2013-02-26 07:29:00,
2013-02-26 02:44:00,68.8,66.7,29.71,South,188,1.0,4.0,93,0.00,,,0.00,WeatherDisplay:10.37,2013-02-26 07:44:00,
2013-02-26 02:59:00,69.3,67.2,29.70,SSE,153,0.0,4.0,93,0.00,,,0.00,WeatherDisplay:10.37,2013-02-26 07:59:00,
2013-02-26 03:14:00,69.8,67.7,29.71,SSE,160,0.0,7.0,93,0.00,,,0.00,WeatherDisplay:10.37,2013-02-26 08:14:00,
2013-02-26 03:29:00,70.1,68.0,29.71,SSE,168,1.0,7.0,93,0.00,,,0.00,WeatherDisplay:10.37,2013-02-26 08:29:00,
2013-02-26 03:44:00,70.1,68.0,29.70,SSE,155,1.0,7.0,93,0.00,,,0.00,WeatherDisplay:10.37,2013-02-26 08:44:00,
2013-02-26 03:59:00,69.9,67.8,29.70,SSE,160,0.0,7.0,93,0.00,,,0.00,WeatherDisplay:10.37,2013-02-26 08:59:00,
2013-02-26 04:14:00,70.1,68.0,29.70,SSE,159,1.0,10.0,93,0.00,,,0.00,WeatherDisplay:10.37,2013-02-26 09:14:00,
2013-02-26 04:29:00,70.1,68.0,29.69,South,179,0.0,7.0,93,0.00,,,0.00,WeatherDisplay:10.37,2013-02-26 09:29:00,
2013-02-26 04:44:00,70.1,68.0,29.71,South,169,0.0,7.0,93,0.00,,,0.00,WeatherDisplay:10.37,2013-02-26 09:44:00,
2013-02-26 04:59:00,70.3,68.2,29.71,South,171,0.0,6.0,93,0.00,,,0.00,WeatherDisplay:10.37,2013-02-26 09:59:00,
2013-02-26 05:14:00,70.3,68.2,29.71,SSE,166,2.0,7.0,93,0.00,,,0.00,WeatherDisplay:10.37,2013-02-26 10:14:00,
2013-02-26 05:29:00,70.4,68.3,29.71,SSE,147,0.0,5.0,93,0.00,,,0.00,WeatherDisplay:10.37,2013-02-26 10:29:00,
2013-02-26 05:44:00,70.6,68.8,29.71,SSE,152,1.0,7.0,94,0.00,,,0.00,WeatherDisplay:10.37,2013-02-26 10:44:00,
2013-02-26 05:59:00,70.8,69.0,29.70,SE,137,1.0,10.0,94,0.00,,,0.00,WeatherDisplay:10.37,2013-02-26 10:59:00,
2013-02-26 06:14:00,70.9,69.1,29.70,SE,134,0.0,12.0,94,0.00,,,0.00,WeatherDisplay:10.37,2013-02-26 11:14:00,
2013-02-26 06:29:00,70.9,69.1,29.70,SSE,166,1.0,12.0,94,0.00,,,0.00,WeatherDisplay:10.37,2013-02-26 11:29:00,
2013-02-26 06:44:00,70.9,69.1,29.71,SSE,167,0.0,9.0,94,0.00,,,0.00,WeatherDisplay:10.37,2013-02-26 11:44:00,
2013-02-26 06:59:00,71.1,69.3,29.71,SSE,152,0.0,8.0,94,0.00,,,0.00,WeatherDisplay:10.37,2013-02-26 11:59:00,
2013-02-26 07:14:00,71.3,69.5,29.71,SSE,162,0.0,7.0,94,0.00,,,0.00,WeatherDisplay:10.37,2013-02-26 12:14:00,
2013-02-26 07:29:00,71.6,69.8,29.70,SE,140,1.0,12.0,94,0.00,,,0.00,WeatherDisplay:10.37,2013-02-26 12:29:00,
2013-02-26 07:44:00,72.0,69.9,29.70,South,169,2.0,10.0,93,0.00,,,0.00,WeatherDisplay:10.37,2013-02-26 12:44:00,
2013-02-26 07:59:00,72.1,69.6,29.71,South,178,0.0,9.0,92,0.00,,,0.00,WeatherDisplay:10.37,2013-02-26 12:59:00,
2013-02-26 08:14:00,72.3,69.8,29.73,SSE,166,1.0,8.0,92,0.00,,,0.00,WeatherDisplay:10.37,2013-02-26 13:14:00,
2013-02-26 08:29:00,72.5,70.0,29.73,SE,131,2.0,10.0,92,0.00,,,0.00,WeatherDisplay:10.37,2013-02-26 13:29:00,
2013-02-26 08:44:00,72.7,69.9,29.73,South,173,0.0,9.0,91,0.00,,,0.00,WeatherDisplay:10.37,2013-02-26 13:44:00,
2013-02-26 08:59:00,72.8,69.7,29.73,SE,142,0.0,8.0,90,0.00,,,0.00,WeatherDisplay:10.37,2013-02-26 13:59:00,
2013-02-26 09:14:00,73.0,69.6,29.71,SSE,166,1.0,12.0,89,0.00,,,0.00,WeatherDisplay:10.37,2013-02-26 14:14:00,
2013-02-26 09:29:00,73.3,69.5,29.72,South,170,0.0,10.0,88,0.00,,,0.00,WeatherDisplay:10.37,2013-02-26 14:29:00,
2013-02-26 09:44:00,73.5,69.4,29.74,South,187,0.0,7.0,87,0.00,,,0.00,WeatherDisplay:10.37,2013-02-26 14:44:00,
2013-02-26 09:59:00,73.9,69.5,29.75,South,174,0.0,8.0,86,0.00,,,0.00,WeatherDisplay:10.37,2013-02-26 14:59:00,
2013-02-26 10:14:00,74.6,69.8,29.74,South,169,3.0,9.0,85,0.01,RA,,0.01,WeatherDisplay:10.37,2013-02-26 15:14:00,
2013-02-26 10:29:00,74.9,69.4,29.74,South,175,2.0,10.0,83,0.00,,,0.01,WeatherDisplay:10.37,2013-02-26 15:29:00,
2013-02-26 10:44:00,75.4,69.5,29.75,South,171,1.0,7.0,82,0.00,,,0.01,WeatherDisplay:10.37,2013-02-26 15:44:00,
2013-02-26 10:59:00,75.6,69.0,29.76,SSE,166,0.0,9.0,80,0.00,,,0.01,WeatherDisplay:10.37,2013-02-26 15:59:00,
2013-02-26 11:14:00,76.0,68.6,29.75,SSW,192,0.0,12.0,78,0.00,,,0.01,WeatherDisplay:10.37,2013-02-26 16:14:00,
2013-02-26 11:29:00,76.5,68.7,29.75,South,173,1.0,10.0,77,0.00,,,0.01,WeatherDisplay:10.37,2013-02-26 16:29:00,
2013-02-26 11:44:00,76.3,68.6,29.75,South,169,0.0,12.0,77,0.00,,,0.01,WeatherDisplay:10.37,2013-02-26 16:44:00,
2013-02-26 11:59:00,76.7,68.6,29.74,South,169,2.0,14.0,76,0.00,,,0.01,WeatherDisplay:10.37,2013-02-26 16:59:00,
2013-02-26 12:14:00,77.2,68.7,29.73,South,175,1.0,12.0,75,0.00,,,0.01,WeatherDisplay:10.37,2013-02-26 17:14:00,
2013-02-26 12:29:00,77.6,69.4,29.73,South,177,0.0,12.0,76,0.00,,,0.01,WeatherDisplay:10.37,2013-02-26 17:29:00,
2013-02-26 12:44:00,76.7,69.3,29.73,SSW,197,1.0,9.0,78,0.00,,,0.01,WeatherDisplay:10.37,2013-02-26 17:44:00,
2013-02-26 12:59:00,76.0,69.4,29.73,South,186,1.0,12.0,80,0.00,,,0.01,WeatherDisplay:10.37,2013-02-26 17:59:00,
2013-02-26 13:14:00,74.7,69.9,29.72,SSW,203,2.0,9.0,85,0.03,RA,,0.04,WeatherDisplay:10.37,2013-02-26 18:14:00,
2013-02-26 13:29:00,74.4,70.3,29.71,SSW,212,1.0,16.0,87,0.03,RA,,0.07,WeatherDisplay:10.37,2013-02-26 18:29:00,
2013-02-26 13:44:00,70.6,66.9,29.73,WSW,238,0.0,15.0,88,0.06,,,0.13,WeatherDisplay:10.37,2013-02-26 18:44:00,
2013-02-26 13:59:00,69.3,65.9,29.73,WSW,248,5.0,10.0,89,0.00,,,0.13,WeatherDisplay:10.37,2013-02-26 18:59:00,
2013-02-26 14:14:00,69.3,66.6,29.71,WSW,237,0.0,12.0,91,0.00,,,0.13,WeatherDisplay:10.37,2013-02-26 19:14:00,
2013-02-26 14:29:00,70.2,67.5,29.71,SW,230,0.0,10.0,91,0.00,,,0.13,WeatherDisplay:10.37,2013-02-26 19:29:00,
2013-02-26 14:44:00,70.8,68.0,29.71,SW,229,0.0,6.0,91,0.00,,,0.13,WeatherDisplay:10.37,2013-02-26 19:44:00,
2013-02-26 14:59:00,70.9,67.8,29.71,SSW,201,0.0,5.0,90,0.00,,,0.13,WeatherDisplay:10.37,2013-02-26 19:59:00,
2013-02-26 15:14:00,71.7,68.3,29.71,SSW,196,0.0,2.0,89,0.00,,,0.13,WeatherDisplay:10.37,2013-02-26 20:14:00,
2013-02-26 15:29:00,72.3,67.9,29.71,SSW,199,1.0,20.0,86,0.00,,,0.13,WeatherDisplay:10.37,2013-02-26 20:29:00,
2013-02-26 15:44:00,72.8,67.3,29.71,SSW,209,3.0,12.0,83,0.00,,,0.13,WeatherDisplay:10.37,2013-02-26 20:44:00,
2013-02-26 15:59:00,73.5,67.7,29.71,SSW,202,1.0,9.0,82,0.00,,,0.13,WeatherDisplay:10.37,2013-02-26 20:59:00,
2013-02-26 16:14:00,73.7,67.5,29.70,South,190,1.0,9.0,81,0.00,,,0.13,WeatherDisplay:10.37,2013-02-26 21:14:00,
2013-02-26 16:30:00,73.9,68.1,29.70,SSW,213,1.0,5.0,82,0.00,,,0.13,WeatherDisplay:10.37,2013-02-26 21:30:00,
2013-02-26 16:45:00,74.2,68.3,29.71,SW,225,0.0,10.0,82,0.00,,,0.13,WeatherDisplay:10.37,2013-02-26 21:45:00,
2013-02-26 17:00:00,74.4,68.5,29.72,WSW,248,1.0,7.0,82,0.00,,,0.13,WeatherDisplay:10.37,2013-02-26 22:00:00,
2013-02-26 17:15:00,74.0,67.4,29.72,WSW,242,0.0,12.0,80,0.00,,,0.13,WeatherDisplay:10.37,2013-02-26 22:15:00,
2013-02-26 17:30:00,73.8,67.2,29.72,SW,234,3.0,8.0,80,0.00,,,0.13,WeatherDisplay:10.37,2013-02-26 22:30:00,
2013-02-26 17:45:00,73.3,67.1,29.73,South,188,0.0,8.0,81,0.00,,,0.13,WeatherDisplay:10.37,2013-02-26 22:45:00,
2013-02-26 18:00:00,72.8,66.3,29.72,SSW,197,0.0,0.0,80,0.00,,,0.13,WeatherDisplay:10.37,2013-02-26 23:00:00,
2013-02-26 18:15:00,72.1,65.6,29.72,SW,218,0.0,0.0,80,0.00,,,0.13,WeatherDisplay:10.37,2013-02-26 23:15:00,
2013-02-26 18:30:00,71.8,65.7,29.73,WSW,242,0.0,6.0,81,0.00,,,0.13,WeatherDisplay:10.37,2013-02-26 23:30:00,
2013-02-26 18:45:00,71.3,65.2,29.73,SW,229,0.0,3.0,81,0.00,,,0.13,WeatherDisplay:10.37,2013-02-26 23:45:00,
2013-02-26 19:00:00,70.8,65.0,29.74,SW,224,0.0,0.0,82,0.00,,,0.13,WeatherDisplay:10.37,2013-02-27 00:00:00,
2013-02-26 19:15:00,69.9,61.2,29.75,WSW,249,1.0,9.0,74,0.00,,,0.13,WeatherDisplay:10.37,2013-02-27 00:15:00,
2013-02-26 19:30:00,69.5,60.1,29.75,WSW,246,0.0,9.0,72,0.00,,,0.13,WeatherDisplay:10.37,2013-02-27 00:30:00,
2013-02-26 19:45:00,68.8,59.4,29.76,WSW,254,0.0,5.0,72,0.00,,,0.13,WeatherDisplay:10.37,2013-02-27 00:45:00,
2013-02-26 20:00:00,68.6,58.8,29.76,SW,229,0.0,12.0,71,0.00,,,0.13,WeatherDisplay:10.37,2013-02-27 01:00:00,
2013-02-26 20:15:00,67.9,58.5,29.76,SW,230,0.0,7.0,72,0.00,,,0.13,WeatherDisplay:10.37,2013-02-27 01:15:00,
2013-02-26 20:30:00,67.3,58.7,29.77,West,267,0.0,9.0,74,0.00,,,0.13,WeatherDisplay:10.37,2013-02-27 01:30:00,
2013-02-26 20:45:00,66.8,59.0,29.77,West,265,0.0,6.0,76,0.00,,,0.13,WeatherDisplay:10.37,2013-02-27 01:45:00,
2013-02-26 21:00:00,66.3,58.8,29.77,SW,221,0.0,4.0,77,0.00,,,0.13,WeatherDisplay:10.37,2013-02-27 02:00:00,
2013-02-26 21:15:00,65.6,58.6,29.77,SW,220,0.0,0.0,78,0.00,,,0.13,WeatherDisplay:10.37,2013-02-27 02:15:00,
2013-02-26 21:30:00,65.0,58.7,29.78,SW,220,0.0,0.0,80,0.00,,,0.13,WeatherDisplay:10.37,2013-02-27 02:30:00,
2013-02-26 21:45:00,65.0,59.0,29.79,SSW,210,0.0,0.0,81,0.00,,,0.13,WeatherDisplay:10.37,2013-02-27 02:45:00,
2013-02-26 22:00:00,64.8,59.2,29.79,SW,231,0.0,0.0,82,0.00,,,0.13,WeatherDisplay:10.37,2013-02-27 03:00:00,
2013-02-26 22:15:00,65.2,59.9,29.80,SW,235,0.0,7.0,83,0.00,,,0.13,WeatherDisplay:10.37,2013-02-27 03:15:00,
2013-02-26 22:30:00,65.2,59.9,29.80,WSW,247,0.0,0.0,83,0.00,,,0.13,WeatherDisplay:10.37,2013-02-27 03:30:00,
2013-02-26 22:45:00,65.3,60.3,29.81,SSW,203,0.0,0.0,84,0.00,,,0.13,WeatherDisplay:10.37,2013-02-27 03:45:00,
2013-02-26 23:00:00,65.6,60.6,29.81,SW,220,0.0,5.0,84,0.00,,,0.13,WeatherDisplay:10.37,2013-02-27 04:00:00,
2013-02-26 23:15:00,65.8,60.8,29.81,WSW,238,0.0,12.0,84,0.00,,,0.13,WeatherDisplay:10.37,2013-02-27 04:15:00,
2013-02-26 23:30:00,65.6,61.0,29.81,WSW,253,0.0,13.0,85,0.00,,,0.13,WeatherDisplay:10.37,2013-02-27 04:30:00,
2013-02-26 23:45:00,65.5,61.2,29.81,WSW,243,1.0,5.0,86,0.00,,,0.13,WeatherDisplay:10.37,2013-02-27 04:45:00,